This is the latest recevied weather packets stored in our database for station/object DL1GHN-6. If no packets are shown the sender has not sent any weather packets the latest 10 day(s).
| Time | Temp. | Humidity | Pressure | Rain* | Wind** | Luminosity | Snow |
|---|---|---|---|---|---|---|---|
| 1777472434 | 24.44° C | 26% | 1018.1 hPa | 0 mm | - | 596 W/m² | - |
| 1777472133 | 24.44° C | 30% | 1017.9 hPa | 0 mm | - | 608 W/m² | - |
| 1777471832 | 24.44° C | 25% | 1017.9 hPa | 0 mm | - | 621 W/m² | - |
| 1777471533 | 24.44° C | 31% | 1018 hPa | 0 mm | - | 633 W/m² | - |
| 1777471232 | 23.89° C | 27% | 1018 hPa | 0 mm | - | 643 W/m² | - |
| 1777470932 | 24.44° C | 27% | 1018 hPa | 0 mm | - | 652 W/m² | - |
| 1777470632 | 24.44° C | 30% | 1018 hPa | 0 mm | - | 657 W/m² | - |
| 1777470332 | 23.89° C | 29% | 1018.1 hPa | 0 mm | - | 671 W/m² | - |
| 1777470032 | 23.89° C | 26% | 1018 hPa | 0 mm | - | 679 W/m² | - |
| 1777469733 | 24.44° C | 26% | 1018.1 hPa | 0 mm | - | 691 W/m² | - |
| 1777469432 | 24.44° C | 26% | 1018 hPa | 0 mm | - | 587 W/m² | - |
| 1777469133 | 24.44° C | 26% | 1018.2 hPa | 0 mm | - | 707 W/m² | - |
| 1777468833 | 24.44° C | 31% | 1018.2 hPa | 0 mm | - | 707 W/m² | - |
| 1777468533 | 24.44° C | 26% | 1018.2 hPa | 0 mm | - | 712 W/m² | - |
| 1777468233 | 24.44° C | 30% | 1018.2 hPa | 0 mm | - | 717 W/m² | - |
| 1777467932 | 23.89° C | 28% | 1018.2 hPa | 0 mm | - | 728 W/m² | - |
| 1777467632 | 23.89° C | 30% | 1018.2 hPa | 0 mm | - | 737 W/m² | - |
| 1777467332 | 23.33° C | 27% | 1018.2 hPa | 0 mm | - | 742 W/m² | - |
| 1777467034 | 24.44° C | 28% | 1018.3 hPa | 0 mm | - | 752 W/m² | - |
| 1777466733 | 24.44° C | 30% | 1018.2 hPa | 0 mm | - | 752 W/m² | - |
| 1777466433 | 23.89° C | 29% | 1018.2 hPa | 0 mm | - | 759 W/m² | - |
| 1777466132 | 23.33° C | 32% | 1018.3 hPa | 0 mm | - | 761 W/m² | - |
| 1777465832 | 23.33° C | 31% | 1018.3 hPa | 0 mm | - | 768 W/m² | - |
| 1777465533 | 23.89° C | 31% | 1018.4 hPa | 0 mm | - | 777 W/m² | - |
| 1777465232 | 23.33° C | 29% | 1018.3 hPa | 0 mm | - | 775 W/m² | - |
* Rain latest hour (hover to see other rain measurements)
** Current wind speed in m/s (hover to see current wind gust speed)